Amalia — SXMT — position and weather

sailwx.info

Track history (hours):
 
Tides and Currents Weather Stations Pressure Air Temp Water Temp Dewpoint Dewpoint Depression Visibility Wind Speed Wind Dir Waves Ship Positions

Amalia

Last reported at 2015-Feb-22 02:33 UTC. Time now 2015-Feb-28 15:58 UTC.
Position N 01°16' E 104°16'.

Length 225 m; draft 8.5 m.

Type: Cargo ship. MMSI: 239652000.

Date/timePositionNaut miles runAvg speedWind from/ knotsBaromVisibWave heightAir tempDewpointWater temp
2015-Feb-22 02:33N 01°16' E 104°16'1010.1
2015-Feb-22 01:33N 01°15' E 104°06'8 7.7
2015-Feb-22 00:33N 01°17' E 103°58'0 0.2
2015-Feb-21 23:17N 01°17' E 103°58'0 0.0
2015-Feb-21 22:29N 01°17' E 103°58'0 0.0
2015-Feb-21 21:23N 01°17' E 103°58'0 0.0
2015-Feb-21 20:29N 01°17' E 103°58'0 0.0
2015-Feb-21 17:29N 01°17' E 103°58'0 0.0
2015-Feb-21 14:17N 01°17' E 103°58'0 0.1
2015-Feb-21 13:29N 01°17' E 103°58'0 0.1
2015-Feb-21 12:17N 01°17' E 103°58'0 0.2
2015-Feb-21 11:17N 01°17' E 103°58'0 0.1
2015-Feb-21 10:29N 01°17' E 103°58'0 0.1
2015-Feb-21 09:33N 01°17' E 103°58'4 3.9
2015-Feb-21 08:33N 01°16' E 104°02'8 8.2
2015-Feb-21 07:33N 01°17' E 104°10'  
2015-Feb-16 13:18N 23°20' E 118°07'1012.9
2015-Feb-16 12:33N 23°27' E 118°14'1313.0
2015-Feb-16 11:33N 23°37' E 118°24'1412.9
2015-Feb-16 10:30N 23°46' E 118°34'1212.9
2015-Feb-16 09:33N 23°55' E 118°44'1313.1
2015-Feb-16 08:33N 24°04' E 118°54'1513.0
2015-Feb-16 07:24N 24°15' E 119°05'1113.3
2015-Feb-16 06:33N 24°23' E 119°13'1413.6
2015-Feb-16 05:29N 24°33' E 119°25'2712.6
2015-Feb-16 03:22N 24°52' E 119°46'25612.1
2015-Feb-15 06:17N 28°27' E 122°22'912.3
2015-Feb-15 05:32N 28°36' E 122°26'14910.7
2015-Feb-14 15:33N 31°05' E 122°34'1211.9
2015-Feb-14 14:33N 31°06' E 122°20'1212.2
2015-Feb-14 13:33N 31°12' E 122°08'1211.6
2015-Feb-14 12:34N 31°16' E 121°55'1110.7
2015-Feb-14 11:34N 31°19' E 121°43'10 9.7
2015-Feb-14 10:33N 31°24' E 121°33'10 9.7
2015-Feb-14 09:33N 31°30' E 121°24'1212.2
2015-Feb-14 08:33N 31°39' E 121°14'1412.6
2015-Feb-14 07:28N 31°47' E 121°01'1011.0
2015-Feb-14 06:33N 31°54' E 120°53'6 5.0
2015-Feb-14 05:27N 31°59' E 120°50'0 0.1
2015-Feb-14 04:21N 31°59' E 120°50'0 0.0
2015-Feb-14 03:33N 31°59' E 120°50'0 0.0
2015-Feb-14 02:30N 31°59' E 120°50'0 0.0
2015-Feb-14 01:30N 31°59' E 120°50'0 0.0
2015-Feb-14 00:30N 31°59' E 120°50'0 0.0
2015-Feb-13 23:33N 31°59' E 120°50'0 0.2
2015-Feb-13 22:33N 31°59' E 120°50'0 0.0
2015-Feb-13 21:18N 31°59' E 120°50'0 0.0
2015-Feb-13 20:33N 31°59' E 120°50'0 0.0
2015-Feb-13 19:33N 31°59' E 120°50'0 0.0
2015-Feb-13 18:27N 31°59' E 120°50'0 0.0
2015-Feb-13 17:33N 31°59' E 120°50'0 0.0
2015-Feb-13 16:33N 31°59' E 120°50'0 0.1
2015-Feb-13 15:33N 31°59' E 120°50'0 0.2
2015-Feb-13 14:21N 31°59' E 120°50'0 0.0
2015-Feb-13 13:33N 31°59' E 120°50'0 0.0
2015-Feb-13 12:15N 31°59' E 120°50'0 0.0
2015-Feb-13 11:27N 31°59' E 120°50'0 0.2
2015-Feb-13 10:30N 31°59' E 120°50'0 0.0
2015-Feb-13 09:33N 31°59' E 120°50'0 0.1
2015-Feb-13 08:30N 31°59' E 120°50'0 0.0
2015-Feb-13 07:33N 31°59' E 120°50'0 0.0
2015-Feb-13 06:33N 31°59' E 120°50'0 0.0
2015-Feb-13 05:30N 31°59' E 120°50'0 0.0
2015-Feb-13 04:33N 31°59' E 120°50'0 0.2
2015-Feb-13 03:24N 31°59' E 120°50'0 0.0
2015-Feb-13 02:27N 31°59' E 120°50'0 0.0
2015-Feb-13 00:34N 31°59' E 120°50'0 0.0
2015-Feb-12 23:27N 31°59' E 120°50'0 0.0
2015-Feb-12 22:33N 31°59' E 120°50'0 0.1
2015-Feb-12 21:12N 31°59' E 120°50'0 0.1
2015-Feb-12 20:33N 31°59' E 120°50'0 0.0
2015-Feb-12 19:06N 31°59' E 120°50'0 0.0
2015-Feb-12 18:27N 31°59' E 120°50'0 0.0
2015-Feb-12 17:27N 31°59' E 120°50'0 0.0
2015-Feb-12 16:15N 31°59' E 120°50'0 0.1
2015-Feb-12 15:33N 31°59' E 120°50'0 0.1
2015-Feb-12 14:27N 31°59' E 120°50'0 0.2
2015-Feb-12 13:33N 31°59' E 120°49'0 0.0
2015-Feb-12 12:03N 31°59' E 120°49'0 0.0
2015-Feb-12 11:27N 31°59' E 120°49'0 0.0
2015-Feb-12 10:33N 31°59' E 120°49'0 0.1
2015-Feb-12 09:33N 31°59' E 120°49'0 0.2
2015-Feb-12 08:33N 31°59' E 120°50'0 0.0
2015-Feb-12 07:21N 31°59' E 120°50'0 0.0
2015-Feb-12 05:33N 31°59' E 120°50'0 0.0
2015-Feb-12 04:15N 31°59' E 120°50'0 0.0
2015-Feb-12 03:27N 31°59' E 120°50'  
Track history (hours):
 
Tides and Currents Weather Stations Pressure Air Temp Water Temp Dewpoint Dewpoint Depression Visibility Wind Speed Wind Dir Waves Ship Positions

Amalia

Last reported at 2015-Feb-22 02:33 UTC. Time now 2015-Feb-28 15:58 UTC.
Position N 01°16' E 104°16'.

Length 225 m; draft 8.5 m.

Type: Cargo ship. MMSI: 239652000.

Date/timePositionNaut miles runAvg speedWind from/ knotsBaromVisibWave heightAir tempDewpointWater temp
2015-Feb-22 02:33N 01°16' E 104°16'1010.1
2015-Feb-22 01:33N 01°15' E 104°06'8 7.7
2015-Feb-22 00:33N 01°17' E 103°58'0 0.2
2015-Feb-21 23:17N 01°17' E 103°58'0 0.0
2015-Feb-21 22:29N 01°17' E 103°58'0 0.0
2015-Feb-21 21:23N 01°17' E 103°58'0 0.0
2015-Feb-21 20:29N 01°17' E 103°58'0 0.0
2015-Feb-21 17:29N 01°17' E 103°58'0 0.0
2015-Feb-21 14:17N 01°17' E 103°58'0 0.1
2015-Feb-21 13:29N 01°17' E 103°58'0 0.1
2015-Feb-21 12:17N 01°17' E 103°58'0 0.2
2015-Feb-21 11:17N 01°17' E 103°58'0 0.1
2015-Feb-21 10:29N 01°17' E 103°58'0 0.1
2015-Feb-21 09:33N 01°17' E 103°58'4 3.9
2015-Feb-21 08:33N 01°16' E 104°02'8 8.2
2015-Feb-21 07:33N 01°17' E 104°10'  
2015-Feb-16 13:18N 23°20' E 118°07'1012.9
2015-Feb-16 12:33N 23°27' E 118°14'1313.0
2015-Feb-16 11:33N 23°37' E 118°24'1412.9
2015-Feb-16 10:30N 23°46' E 118°34'1212.9
2015-Feb-16 09:33N 23°55' E 118°44'1313.1
2015-Feb-16 08:33N 24°04' E 118°54'1513.0
2015-Feb-16 07:24N 24°15' E 119°05'1113.3
2015-Feb-16 06:33N 24°23' E 119°13'1413.6
2015-Feb-16 05:29N 24°33' E 119°25'2712.6
2015-Feb-16 03:22N 24°52' E 119°46'25612.1
2015-Feb-15 06:17N 28°27' E 122°22'912.3
2015-Feb-15 05:32N 28°36' E 122°26'14910.7
2015-Feb-14 15:33N 31°05' E 122°34'1211.9
2015-Feb-14 14:33N 31°06' E 122°20'1212.2
2015-Feb-14 13:33N 31°12' E 122°08'1211.6
2015-Feb-14 12:34N 31°16' E 121°55'1110.7
2015-Feb-14 11:34N 31°19' E 121°43'10 9.7
2015-Feb-14 10:33N 31°24' E 121°33'10 9.7
2015-Feb-14 09:33N 31°30' E 121°24'1212.2
2015-Feb-14 08:33N 31°39' E 121°14'1412.6
2015-Feb-14 07:28N 31°47' E 121°01'1011.0
2015-Feb-14 06:33N 31°54' E 120°53'6 5.0
2015-Feb-14 05:27N 31°59' E 120°50'0 0.1
2015-Feb-14 04:21N 31°59' E 120°50'0 0.0
2015-Feb-14 03:33N 31°59' E 120°50'0 0.0
2015-Feb-14 02:30N 31°59' E 120°50'0 0.0
2015-Feb-14 01:30N 31°59' E 120°50'0 0.0
2015-Feb-14 00:30N 31°59' E 120°50'0 0.0
2015-Feb-13 23:33N 31°59' E 120°50'0 0.2
2015-Feb-13 22:33N 31°59' E 120°50'0 0.0
2015-Feb-13 21:18N 31°59' E 120°50'0 0.0
2015-Feb-13 20:33N 31°59' E 120°50'0 0.0
2015-Feb-13 19:33N 31°59' E 120°50'0 0.0
2015-Feb-13 18:27N 31°59' E 120°50'0 0.0
2015-Feb-13 17:33N 31°59' E 120°50'0 0.0
2015-Feb-13 16:33N 31°59' E 120°50'0 0.1
2015-Feb-13 15:33N 31°59' E 120°50'0 0.2
2015-Feb-13 14:21N 31°59' E 120°50'0 0.0
2015-Feb-13 13:33N 31°59' E 120°50'0 0.0
2015-Feb-13 12:15N 31°59' E 120°50'0 0.0
2015-Feb-13 11:27N 31°59' E 120°50'0 0.2
2015-Feb-13 10:30N 31°59' E 120°50'0 0.0
2015-Feb-13 09:33N 31°59' E 120°50'0 0.1
2015-Feb-13 08:30N 31°59' E 120°50'0 0.0
2015-Feb-13 07:33N 31°59' E 120°50'0 0.0
2015-Feb-13 06:33N 31°59' E 120°50'0 0.0
2015-Feb-13 05:30N 31°59' E 120°50'0 0.0
2015-Feb-13 04:33N 31°59' E 120°50'0 0.2
2015-Feb-13 03:24N 31°59' E 120°50'0 0.0
2015-Feb-13 02:27N 31°59' E 120°50'0 0.0
2015-Feb-13 00:34N 31°59' E 120°50'0 0.0
2015-Feb-12 23:27N 31°59' E 120°50'0 0.0
2015-Feb-12 22:33N 31°59' E 120°50'0 0.1
2015-Feb-12 21:12N 31°59' E 120°50'0 0.1
2015-Feb-12 20:33N 31°59' E 120°50'0 0.0
2015-Feb-12 19:06N 31°59' E 120°50'0 0.0
2015-Feb-12 18:27N 31°59' E 120°50'0 0.0
2015-Feb-12 17:27N 31°59' E 120°50'0 0.0
2015-Feb-12 16:15N 31°59' E 120°50'0 0.1
2015-Feb-12 15:33N 31°59' E 120°50'0 0.1
2015-Feb-12 14:27N 31°59' E 120°50'0 0.2
2015-Feb-12 13:33N 31°59' E 120°49'0 0.0
2015-Feb-12 12:03N 31°59' E 120°49'0 0.0
2015-Feb-12 11:27N 31°59' E 120°49'0 0.0
2015-Feb-12 10:33N 31°59' E 120°49'0 0.1
2015-Feb-12 09:33N 31°59' E 120°49'0 0.2
2015-Feb-12 08:33N 31°59' E 120°50'0 0.0
2015-Feb-12 07:21N 31°59' E 120°50'0 0.0
2015-Feb-12 05:33N 31°59' E 120°50'0 0.0
2015-Feb-12 04:15N 31°59' E 120°50'0 0.0
2015-Feb-12 03:27N 31°59' E 120°50'  

Dump ship's entire track history